Time;durP1;ratioP1;P1;durP2;ratioP2;P2;SDS_P1;SDS_P2;PMS_P1;PMS_P2;Temp;Humidity;BMP_temperature;BMP_pressure;BME280_temperature;BME280_humidity;BME280_pressure;Samples;Min_cycle;Max_cycle;Signal;HPM_P1;HPM_P2
2022/06/13 00:01:31;;;;;;;22.13;18.15;;;25.40;99.90;;;;;;5072032;28;20044;-64
2022/06/13 00:03:59;;;;;;;25.05;19.58;;;25.40;99.90;;;;;;5075255;28;20105;-64
2022/06/13 00:06:26;;;;;;;25.25;21.23;;;25.50;99.90;;;;;;5076508;28;20028;-64
2022/06/13 00:08:53;;;;;;;22.40;19.83;;;25.50;99.90;;;;;;5075512;28;20444;-64
2022/06/13 00:11:23;;;;;;;24.55;21.20;;;25.60;99.90;;;;;;5076373;28;20024;-65
2022/06/13 00:13:52;;;;;;;27.73;23.92;;;25.70;99.90;;;;;;5076376;28;20104;-65
2022/06/13 00:16:20;;;;;;;25.60;22.45;;;25.70;99.90;;;;;;5068917;28;20386;-64
2022/06/13 00:18:48;;;;;;;29.70;22.67;;;25.70;99.90;;;;;;5067751;28;20028;-63
2022/06/13 00:21:19;;;;;;;40.05;31.83;;;25.80;99.90;;;;;;5067015;28;20032;-63
2022/06/13 00:23:47;;;;;;;126.10;95.17;;;25.80;99.90;;;;;;5058960;28;20016;-63
2022/06/13 00:26:14;;;;;;;50.85;40.53;;;25.80;99.90;;;;;;5065056;28;20033;-63
2022/06/13 00:28:41;;;;;;;33.72;28.52;;;25.80;99.90;;;;;;5065162;28;20016;-64
2022/06/13 00:31:07;;;;;;;29.45;24.27;;;25.80;99.90;;;;;;5069301;28;20021;-63
2022/06/13 00:33:34;;;;;;;32.83;28.00;;;25.90;99.90;;;;;;5064379;28;20048;-62
2022/06/13 00:36:01;;;;;;;34.97;30.00;;;26.00;99.90;;;;;;5065900;28;20024;-65
2022/06/13 00:38:27;;;;;;;33.67;27.50;;;26.00;99.90;;;;;;5072012;28;20048;-65
2022/06/13 00:40:54;;;;;;;32.63;26.38;;;26.10;99.90;;;;;;5070375;28;20473;-64
2022/06/13 00:43:21;;;;;;;33.92;26.77;;;26.10;99.90;;;;;;5070445;28;20111;-65
2022/06/13 00:45:48;;;;;;;30.55;25.75;;;26.10;99.90;;;;;;5058718;28;20053;-65
2022/06/13 00:48:17;;;;;;;30.92;24.25;;;26.10;99.90;;;;;;5068916;28;20094;-64
2022/06/13 00:50:57;;;;;;;28.92;22.85;;;26.10;99.90;;;;;;5074195;28;20033;-65
2022/06/13 00:53:29;;;;;;;28.35;23.35;;;26.20;99.90;;;;;;5074429;28;20363;-64
2022/06/13 00:55:57;;;;;;;28.55;23.75;;;26.20;99.90;;;;;;5075181;28;20035;-65
2022/06/13 00:58:26;;;;;;;32.78;25.67;;;26.30;99.90;;;;;;5075402;28;20023;-65
2022/06/13 01:00:56;;;;;;;27.27;23.20;;;26.30;99.90;;;;;;5071820;28;20437;-64
2022/06/13 01:03:25;;;;;;;29.25;25.48;;;26.40;99.90;;;;;;5074609;28;20387;-65
2022/06/13 01:05:52;;;;;;;29.73;24.73;;;26.40;99.90;;;;;;5072296;28;20096;-63
2022/06/13 01:08:22;;;;;;;33.13;24.05;;;26.50;99.90;;;;;;5073412;28;20029;-64
2022/06/13 01:13:53;;;;;;;27.23;24.20;;;26.60;99.90;;;;;;5065433;28;20037;-65
2022/06/13 01:16:31;;;;;;;32.53;26.10;;;26.60;99.90;;;;;;5054960;28;20079;-65
2022/06/13 01:19:37;;;;;;;30.42;24.55;;;26.60;99.90;;;;;;5072589;28;20059;-65
2022/06/13 01:22:18;;;;;;;30.77;25.30;;;26.50;99.90;;;;;;5074897;28;20025;-65
2022/06/13 01:25:05;;;;;;;30.75;23.45;;;26.60;99.90;;;;;;5074698;28;20020;-64
2022/06/13 01:27:55;;;;;;;29.80;23.95;;;26.60;99.90;;;;;;5074773;28;20020;-64
2022/06/13 01:30:42;;;;;;;32.95;22.40;;;26.70;99.90;;;;;;5069058;28;20052;-65
2022/06/13 01:33:18;;;;;;;31.20;22.00;;;26.80;99.90;;;;;;5074388;28;20033;-64
2022/06/13 01:35:47;;;;;;;31.33;23.27;;;26.80;99.90;;;;;;5074493;28;20028;-65
2022/06/13 01:38:34;;;;;;;26.23;21.10;;;26.90;99.90;;;;;;5074611;28;20024;-64
2022/06/13 01:41:14;;;;;;;26.23;18.65;;;26.90;99.90;;;;;;5074601;28;20501;-65
2022/06/13 01:43:45;;;;;;;33.88;23.38;;;26.80;99.90;;;;;;5073257;28;20127;-65
2022/06/13 01:46:38;;;;;;;33.90;22.40;;;26.80;99.90;;;;;;5074753;28;20063;-65
2022/06/13 01:49:29;;;;;;;35.40;21.38;;;26.80;99.90;;;;;;5074612;28;20036;-63
2022/06/13 01:52:18;;;;;;;27.98;19.10;;;26.70;99.90;;;;;;5072971;28;20274;-63
2022/06/13 01:55:00;;;;;;;26.60;20.20;;;26.80;99.90;;;;;;5064014;28;20037;-64
2022/06/13 01:57:48;;;;;;;32.45;22.70;;;26.70;99.90;;;;;;5073071;28;20033;-64
2022/06/13 02:00:27;;;;;;;28.38;21.27;;;26.70;99.90;;;;;;5066919;28;20028;-64
2022/06/13 02:03:16;;;;;;;32.25;22.17;;;26.80;99.90;;;;;;5070440;28;20043;-64
2022/06/13 02:05:49;;;;;;;24.30;17.88;;;26.90;99.90;;;;;;5074422;28;20432;-66
2022/06/13 02:08:21;;;;;;;21.33;15.15;;;26.90;99.90;;;;;;5065018;28;20493;-64
2022/06/13 02:11:01;;;;;;;16.15;13.02;;;27.00;99.90;;;;;;5071987;28;20109;-66
2022/06/13 02:13:45;;;;;;;16.75;13.73;;;27.10;99.90;;;;;;5068713;28;20031;-65
2022/06/13 02:16:18;;;;;;;16.30;12.80;;;27.30;99.90;;;;;;5073999;28;20032;-64
2022/06/13 02:19:05;;;;;;;14.65;12.55;;;27.30;99.90;;;;;;5067302;28;20115;-62
2022/06/13 02:21:40;;;;;;;22.58;14.32;;;27.60;99.90;;;;;;5053841;28;20024;-64
2022/06/13 02:24:14;;;;;;;18.23;14.30;;;27.70;99.90;;;;;;5053956;28;20017;-66
2022/06/13 02:26:45;;;;;;;23.73;14.80;;;27.80;99.90;;;;;;5053140;28;20021;-64
2022/06/13 02:29:30;;;;;;;19.30;12.00;;;27.80;99.90;;;;;;5072552;28;20504;-64
2022/06/13 02:32:13;;;;;;;19.95;12.52;;;27.90;99.90;;;;;;5064923;28;20437;-64
2022/06/13 02:34:46;;;;;;;21.33;12.85;;;27.80;99.90;;;;;;5064910;28;20028;-64
2022/06/13 02:37:14;;;;;;;14.40;9.48;;;27.90;99.90;;;;;;5068965;28;20017;-65
2022/06/13 02:39:53;;;;;;;15.77;10.15;;;27.90;99.90;;;;;;5071711;28;20390;-64
2022/06/13 02:42:25;;;;;;;10.85;9.10;;;28.00;99.90;;;;;;5069383;28;20044;-64
2022/06/13 02:44:57;;;;;;;14.68;8.30;;;28.00;99.90;;;;;;5073551;28;20074;-65
2022/06/13 02:47:49;;;;;;;11.75;9.18;;;28.00;99.90;;;;;;5068185;28;20017;-65
2022/06/13 02:50:29;;;;;;;16.48;9.85;;;28.10;99.90;;;;;;5051465;28;20029;-65
2022/06/13 02:53:09;;;;;;;17.45;11.27;;;28.10;99.90;;;;;;5070052;28;20016;-63
2022/06/13 02:56:00;;;;;;;14.52;10.27;;;28.20;99.90;;;;;;5069012;28;20043;-65
2022/06/13 02:58:34;;;;;;;16.27;11.52;;;28.20;99.90;;;;;;5072381;28;20021;-64
2022/06/13 03:01:02;;;;;;;13.43;10.30;;;28.30;99.90;;;;;;5068364;28;20028;-63
2022/06/13 03:03:56;;;;;;;14.00;10.23;;;28.30;99.90;;;;;;5072237;28;20036;-64
2022/06/13 03:06:26;;;;;;;11.23;9.43;;;28.40;99.90;;;;;;5072002;28;20033;-63
2022/06/13 03:08:53;;;;;;;12.75;9.50;;;28.50;99.90;;;;;;5072589;28;20031;-64
2022/06/13 03:11:32;;;;;;;21.67;11.60;;;28.50;99.90;;;;;;5070541;28;20268;-64
2022/06/13 03:14:08;;;;;;;15.15;9.55;;;28.60;99.90;;;;;;5064208;28;20056;-64
2022/06/13 03:16:50;;;;;;;14.70;9.55;;;28.80;99.90;;;;;;5066339;28;20031;-64
2022/06/13 03:19:36;;;;;;;14.25;10.15;;;28.80;99.90;;;;;;5068859;28;20437;-65
2022/06/13 03:22:11;;;;;;;13.55;10.13;;;29.00;99.90;;;;;;5070343;28;20024;-65
2022/06/13 03:24:42;;;;;;;11.98;8.43;;;28.90;99.90;;;;;;5071111;28;20078;-65
2022/06/13 03:27:26;;;;;;;19.15;9.32;;;29.00;99.90;;;;;;5070938;28;20502;-64
2022/06/13 03:30:17;;;;;;;16.15;12.23;;;29.10;99.90;;;;;;5066265;28;20470;-65
2022/06/13 03:35:40;;;;;;;13.20;7.95;;;29.30;99.90;;;;;;5069768;28;20432;-64
2022/06/13 03:38:12;;;;;;;12.52;8.93;;;29.40;99.90;;;;;;5072407;28;20119;-65
2022/06/13 03:40:46;;;;;;;20.08;7.57;;;29.40;99.90;;;;;;5073738;28;20032;-65
2022/06/13 03:43:37;;;;;;;10.60;6.75;;;29.50;99.90;;;;;;5076725;28;20021;-65
2022/06/13 03:46:09;;;;;;;9.85;4.88;;;29.50;99.90;;;;;;5065352;28;20039;-66
2022/06/13 03:49:01;;;;;;;14.23;7.03;;;29.60;99.90;;;;;;5072668;28;20043;-65
2022/06/13 03:51:38;;;;;;;11.88;8.68;;;29.60;99.90;;;;;;5072889;28;20028;-64
2022/06/13 03:54:18;;;;;;;9.77;6.75;;;29.70;99.90;;;;;;5076022;28;20037;-65
2022/06/13 03:56:49;;;;;;;16.10;7.07;;;29.70;99.90;;;;;;5072466;28;20025;-65
2022/06/13 03:59:23;;;;;;;12.32;5.20;;;29.90;99.90;;;;;;5071880;28;20021;-65
2022/06/13 04:02:12;;;;;;;5.45;4.00;;;29.90;99.90;;;;;;5073332;28;20025;-65
2022/06/13 04:04:43;;;;;;;7.90;5.03;;;29.90;99.90;;;;;;5056132;28;20127;-65
2022/06/13 04:07:10;;;;;;;9.20;4.80;;;29.90;99.90;;;;;;5071402;28;20031;-66
2022/06/13 04:09:49;;;;;;;6.43;4.53;;;30.00;99.90;;;;;;5070028;28;20040;-66
2022/06/13 04:12:44;;;;;;;9.82;4.93;;;30.00;99.90;;;;;;5075278;28;20028;-64
2022/06/13 04:15:24;;;;;;;6.63;4.70;;;30.10;99.90;;;;;;5074503;28;20024;-65
2022/06/13 04:18:06;;;;;;;7.82;4.20;;;30.10;99.90;;;;;;5072183;28;20017;-65
2022/06/13 04:21:01;;;;;;;9.25;4.78;;;30.30;99.90;;;;;;5074013;28;20078;-66
2022/06/13 04:23:33;;;;;;;5.43;4.38;;;30.30;99.90;;;;;;5074051;28;20421;-65
2022/06/13 04:26:19;;;;;;;17.35;6.10;;;30.30;99.90;;;;;;5071792;28;20074;-67
2022/06/13 04:28:46;;;;;;;15.43;8.68;;;30.40;99.90;;;;;;5072709;28;20040;-68
2022/06/13 04:31:14;;;;;;;13.70;8.80;;;30.40;99.90;;;;;;5067769;28;20021;-67
2022/06/13 04:33:47;;;;;;;14.52;8.02;;;30.50;99.90;;;;;;5074233;28;20043;-66
2022/06/13 04:36:16;;;;;;;12.52;7.57;;;30.60;99.90;;;;;;5073257;28;20036;-65
2022/06/13 04:38:48;;;;;;;15.82;7.80;;;30.70;99.90;;;;;;5071959;28;20107;-66
2022/06/13 04:41:17;;;;;;;14.65;7.82;;;30.70;99.90;;;;;;5073726;28;20359;-66
2022/06/13 04:43:48;;;;;;;14.75;8.02;;;30.50;99.90;;;;;;5072964;28;20020;-66
2022/06/13 04:46:19;;;;;;;14.30;8.53;;;30.40;99.90;;;;;;5072565;28;20037;-70
2022/06/13 04:48:49;;;;;;;11.25;8.40;;;30.50;99.90;;;;;;5070375;28;20552;-65
2022/06/13 04:51:20;;;;;;;7.93;6.65;;;30.50;99.90;;;;;;5066061;28;20315;-66
2022/06/13 04:54:03;;;;;;;20.13;8.50;;;30.70;99.90;;;;;;5064727;28;20120;-66
2022/06/13 04:56:30;;;;;;;16.52;8.15;;;30.70;99.90;;;;;;5063748;28;20029;-66
2022/06/13 04:58:59;;;;;;;14.82;7.25;;;30.60;99.90;;;;;;5062248;28;20500;-69
2022/06/13 05:01:46;;;;;;;21.25;8.57;;;30.60;99.90;;;;;;5065235;28;20048;-68
2022/06/13 05:04:18;;;;;;;9.05;7.15;;;30.50;99.90;;;;;;5070385;28;20064;-67
2022/06/13 05:06:50;;;;;;;15.38;8.13;;;30.60;99.90;;;;;;5075074;28;20054;-67
2022/06/13 05:09:34;;;;;;;11.90;7.07;;;30.70;99.90;;;;;;5070404;28;20478;-67
2022/06/13 05:12:10;;;;;;;12.95;6.75;;;30.80;99.90;;;;;;5072580;28;20035;-69
2022/06/13 05:14:42;;;;;;;10.43;6.90;;;30.90;99.90;;;;;;5069339;28;20432;-65
2022/06/13 05:17:20;;;;;;;10.98;6.70;;;30.90;99.90;;;;;;5073930;28;20505;-66
2022/06/13 05:19:48;;;;;;;10.20;6.45;;;31.00;99.90;;;;;;5071155;28;20040;-65
2022/06/13 05:22:18;;;;;;;7.03;5.63;;;31.00;99.90;;;;;;5076659;28;20367;-65
2022/06/13 05:24:55;;;;;;;9.40;6.13;;;31.00;99.90;;;;;;5074286;28;20095;-66
2022/06/13 05:27:22;;;;;;;6.45;4.63;;;31.00;99.90;;;;;;5074443;28;20111;-65
2022/06/13 05:29:48;;;;;;;7.70;5.90;;;31.10;99.90;;;;;;5068909;28;20021;-66
2022/06/13 05:32:16;;;;;;;10.65;6.63;;;31.10;99.90;;;;;;5074761;28;20021;-65
2022/06/13 05:34:44;;;;;;;10.80;6.97;;;31.10;99.90;;;;;;5073327;22;20057;-64
2022/06/13 05:37:13;;;;;;;9.55;5.38;;;31.30;99.90;;;;;;5049489;28;20036;-61
2022/06/13 05:39:41;;;;;;;10.73;6.75;;;31.40;99.90;;;;;;5048578;28;20086;-63
2022/06/13 05:42:10;;;;;;;10.68;5.53;;;31.50;99.90;;;;;;5050057;28;20029;-65
2022/06/13 05:44:36;;;;;;;11.40;5.93;;;31.50;99.90;;;;;;5052852;28;20021;-65
2022/06/13 05:47:03;;;;;;;9.30;5.75;;;31.50;99.90;;;;;;5047940;28;20414;-65
2022/06/13 05:49:30;;;;;;;9.90;8.38;;;31.60;99.90;;;;;;5043040;28;20021;-67
2022/06/13 05:51:56;;;;;;;11.65;6.43;;;31.50;99.90;;;;;;5044491;28;20025;-66
2022/06/13 05:54:23;;;;;;;10.52;5.55;;;31.50;99.90;;;;;;5053841;28;20024;-66
2022/06/13 05:56:50;;;;;;;9.00;5.72;;;31.50;99.90;;;;;;5049433;28;20048;-64
2022/06/13 05:59:17;;;;;;;9.55;6.55;;;31.50;99.90;;;;;;5045420;28;20029;-68
2022/06/13 06:01:43;;;;;;;7.68;5.72;;;31.60;99.90;;;;;;5031214;28;20261;-69
2022/06/13 06:04:10;;;;;;;7.10;5.20;;;31.60;99.90;;;;;;5035417;28;20025;-65
2022/06/13 06:06:37;;;;;;;8.45;5.60;;;31.60;99.90;;;;;;5029878;28;20037;-65
2022/06/13 06:09:06;;;;;;;8.95;5.85;;;31.60;99.90;;;;;;5033675;28;20049;-64
2022/06/13 06:11:33;;;;;;;12.57;6.28;;;31.70;99.90;;;;;;5029162;28;20484;-65
2022/06/13 06:13:59;;;;;;;16.23;5.32;;;31.80;99.90;;;;;;5036408;28;20507;-67
2022/06/13 06:16:28;;;;;;;7.70;6.35;;;31.90;99.90;;;;;;5027108;28;20037;-65
2022/06/13 06:18:55;;;;;;;9.55;5.45;;;32.00;99.90;;;;;;5023126;28;20536;-66
2022/06/13 06:21:23;;;;;;;7.13;5.10;;;32.00;99.90;;;;;;5019285;28;20030;-66
2022/06/13 06:23:49;;;;;;;13.13;4.75;;;32.20;99.90;;;;;;5025721;28;20021;-65
2022/06/13 06:26:22;;;;;;;9.15;4.55;;;32.20;99.90;;;;;;5024772;28;20040;-70
2022/06/13 06:28:49;;;;;;;12.15;5.03;;;32.20;99.90;;;;;;5025358;28;20028;-65
2022/06/13 06:31:16;;;;;;;11.02;5.40;;;32.30;99.90;;;;;;5033941;28;20029;-65
2022/06/13 06:33:43;;;;;;;12.32;5.65;;;32.30;99.90;;;;;;5031210;28;20108;-65
2022/06/13 06:36:13;;;;;;;9.00;5.18;;;32.50;99.90;;;;;;5037151;28;20474;-63
2022/06/13 06:38:40;;;;;;;11.23;5.05;;;32.60;99.90;;;;;;5042066;28;20025;-64
2022/06/13 06:41:08;;;;;;;8.57;4.25;;;32.60;98.90;;;;;;5031764;28;20439;-63
2022/06/13 06:43:35;;;;;;;10.00;4.22;;;32.60;98.50;;;;;;5039463;28;20025;-63
2022/06/13 06:46:01;;;;;;;15.10;5.35;;;32.50;99.50;;;;;;5042400;28;20036;-63
2022/06/13 06:48:28;;;;;;;9.40;4.50;;;32.60;99.50;;;;;;5043667;28;20066;-63
2022/06/13 06:50:55;;;;;;;11.23;5.05;;;32.60;98.80;;;;;;5041915;28;20028;-63
2022/06/13 06:53:25;;;;;;;10.45;7.13;;;32.60;98.60;;;;;;5041517;28;20032;-63
2022/06/13 07:01:26;;;;;;;10.77;6.40;;;32.60;97.10;;;;;;5040452;28;20088;-63
2022/06/13 07:03:53;;;;;;;9.98;6.32;;;32.60;97.00;;;;;;5042288;28;20017;-64
2022/06/13 07:06:20;;;;;;;25.25;19.38;;;32.70;97.30;;;;;;5035632;28;20467;-64
2022/06/13 07:08:46;;;;;;;8.38;7.05;;;32.80;97.60;;;;;;5041298;28;20049;-64
2022/06/13 07:14:08;;;;;;;6.85;5.32;;;32.80;97.00;;;;;;5041207;28;20037;-63
2022/06/13 07:16:35;;;;;;;8.60;5.88;;;32.90;96.10;;;;;;5045070;28;20018;-64
2022/06/13 07:19:01;;;;;;;8.02;4.82;;;32.90;95.10;;;;;;5042292;28;20364;-64
2022/06/13 07:21:28;;;;;;;13.18;6.35;;;32.90;95.80;;;;;;5045796;28;20033;-64
2022/06/13 07:23:55;;;;;;;8.95;4.95;;;33.00;95.00;;;;;;5047048;28;20406;-64
2022/06/13 07:26:22;;;;;;;7.88;4.60;;;33.00;95.30;;;;;;5048280;28;20100;-64
2022/06/13 07:28:49;;;;;;;7.03;4.97;;;33.00;95.60;;;;;;5043321;28;20037;-65
2022/06/13 07:31:39;;;;;;;6.88;5.07;;;33.00;95.40;;;;;;5042409;28;20282;-64
2022/06/13 07:34:11;;;;;;;12.00;4.85;;;33.10;94.70;;;;;;5043672;28;20049;-64
2022/06/13 07:36:37;;;;;;;10.88;5.90;;;33.10;95.30;;;;;;5032908;28;20037;-63
2022/06/13 07:39:04;;;;;;;10.45;5.55;;;33.10;95.30;;;;;;5041433;28;20025;-63
2022/06/13 07:41:31;;;;;;;6.85;4.53;;;33.10;95.20;;;;;;5037471;28;20032;-65
2022/06/13 07:43:58;;;;;;;12.98;7.00;;;33.10;93.90;;;;;;5039759;28;20067;-64
2022/06/13 07:46:28;;;;;;;13.15;5.82;;;33.00;94.00;;;;;;5045370;28;20101;-65
2022/06/13 07:48:55;;;;;;;11.32;5.20;;;33.10;94.40;;;;;;5075785;22;20368;-64
2022/06/13 07:51:23;;;;;;;9.52;5.78;;;32.90;94.40;;;;;;5055429;28;20080;-66
2022/06/13 07:53:51;;;;;;;9.88;5.65;;;32.70;94.00;;;;;;5055839;28;20033;-64
2022/06/13 07:56:21;;;;;;;7.40;4.63;;;32.70;94.10;;;;;;5054335;28;20029;-66
2022/06/13 07:58:51;;;;;;;8.38;5.00;;;32.80;94.20;;;;;;5051248;28;20479;-65
2022/06/13 08:01:20;;;;;;;11.65;4.78;;;32.80;93.40;;;;;;5053422;28;20476;-66
2022/06/13 08:03:47;;;;;;;7.10;4.95;;;32.80;94.90;;;;;;5047200;28;20032;-65
2022/06/13 08:06:15;;;;;;;10.93;5.38;;;32.90;94.40;;;;;;5047290;28;20044;-64
2022/06/13 08:08:45;;;;;;;16.17;5.88;;;32.90;94.40;;;;;;5047275;28;20025;-65
2022/06/13 08:11:16;;;;;;;13.63;5.10;;;32.90;94.30;;;;;;5046464;28;20090;-65
2022/06/13 08:13:42;;;;;;;19.08;6.63;;;32.90;95.30;;;;;;5049935;28;20032;-65
2022/06/13 08:16:11;;;;;;;13.35;5.55;;;33.10;93.60;;;;;;5046150;28;20048;-65
2022/06/13 08:18:38;;;;;;;12.25;5.45;;;33.10;94.20;;;;;;5045809;28;20032;-65
2022/06/13 08:21:05;;;;;;;9.57;4.93;;;33.10;93.60;;;;;;5052161;28;20021;-65
2022/06/13 08:23:33;;;;;;;13.90;5.20;;;33.10;92.70;;;;;;5050619;28;20026;-65
2022/06/13 08:25:59;;;;;;;10.40;4.95;;;33.00;94.00;;;;;;5050023;28;20033;-65
2022/06/13 08:28:28;;;;;;;14.68;5.60;;;33.10;94.20;;;;;;5043917;28;20029;-65
2022/06/13 08:31:01;;;;;;;6.57;4.10;;;33.10;94.30;;;;;;5038639;28;20060;-64
2022/06/13 08:33:28;;;;;;;16.08;10.07;;;33.00;92.50;;;;;;5056832;28;20033;-64
2022/06/13 08:35:55;;;;;;;6.80;5.30;;;32.90;92.70;;;;;;5055377;28;20021;-64
2022/06/13 08:38:23;;;;;;;13.70;6.68;;;32.90;93.40;;;;;;5039839;28;20022;-65
2022/06/13 08:41:01;;;;;;;10.07;5.07;;;32.90;92.80;;;;;;5048908;28;20281;-65
2022/06/13 08:43:37;;;;;;;6.95;4.70;;;32.70;93.80;;;;;;5053786;28;20029;-64
2022/06/13 08:46:19;;;;;;;15.38;6.60;;;32.70;94.50;;;;;;5043923;28;20021;-64
2022/06/13 08:48:46;;;;;;;15.55;7.88;;;32.70;94.50;;;;;;5055460;28;20049;-64
2022/06/13 08:51:17;;;;;;;9.50;5.90;;;32.70;94.00;;;;;;5055773;28;20033;-64
2022/06/13 08:53:52;;;;;;;13.30;4.77;;;32.70;94.30;;;;;;5049941;28;20040;-65
2022/06/13 08:56:21;;;;;;;10.15;5.85;;;32.60;94.60;;;;;;5048523;28;20044;-64
2022/06/13 08:58:59;;;;;;;11.80;6.18;;;32.40;94.80;;;;;;5049974;28;20500;-64
2022/06/13 09:01:34;;;;;;;13.20;5.57;;;32.40;94.80;;;;;;5051012;28;20074;-64
2022/06/13 09:04:06;;;;;;;13.95;7.10;;;32.40;95.20;;;;;;5051693;28;20032;-64
2022/06/13 09:06:36;;;;;;;;;;;32.30;95.50;;;;;;5047283;28;20029;-64
2022/06/13 09:09:15;;;;;;;17.95;6.28;;;32.20;95.10;;;;;;5050201;28;19909;-64
2022/06/13 09:12:00;;;;;;;14.07;7.40;;;32.20;95.60;;;;;;5039192;28;20340;-64
2022/06/13 09:14:36;;;;;;;13.70;7.32;;;32.10;95.70;;;;;;5047641;28;20028;-64
2022/06/13 09:17:13;;;;;;;19.20;9.90;;;32.00;95.70;;;;;;5046224;28;20104;-65
2022/06/13 09:19:42;;;;;;;17.63;9.02;;;32.00;96.70;;;;;;5043917;28;20537;-65
2022/06/13 09:22:14;;;;;;;10.25;7.18;;;32.00;95.80;;;;;;5039253;28;20028;-64
2022/06/13 09:24:48;;;;;;;14.95;7.90;;;32.10;95.30;;;;;;5053461;28;20025;-65
2022/06/13 09:27:23;;;;;;;11.43;6.25;;;32.10;95.80;;;;;;5048656;28;20025;-64
2022/06/13 09:30:05;;;;;;;12.65;5.47;;;32.00;94.90;;;;;;5057953;28;20101;-64
2022/06/13 09:32:39;;;;;;;12.98;8.10;;;32.00;94.40;;;;;;5047409;28;20067;-64
2022/06/13 09:35:33;;;;;;;9.32;5.68;;;32.00;94.00;;;;;;5051042;28;20033;-64
2022/06/13 09:38:13;;;;;;;9.80;6.25;;;31.90;94.10;;;;;;5046643;28;20025;-64
2022/06/13 09:40:51;;;;;;;8.80;6.07;;;32.00;94.10;;;;;;5048859;28;20274;-64
2022/06/13 09:43:58;;;;;;;10.15;7.00;;;32.00;94.10;;;;;;5045034;28;20048;-64
2022/06/13 09:46:33;;;;;;;11.88;7.20;;;31.90;94.70;;;;;;5052566;28;20048;-64
2022/06/13 09:49:24;;;;;;;18.63;10.63;;;31.90;94.10;;;;;;5052851;28;20064;-65
2022/06/13 09:52:01;;;;;;;21.25;12.57;;;31.80;93.80;;;;;;5052658;28;20027;-65
2022/06/13 09:54:36;;;;;;;23.10;15.77;;;31.70;94.20;;;;;;5052273;28;20044;-64
2022/06/13 09:57:33;;;;;;;27.25;17.58;;;31.60;95.70;;;;;;5052248;28;20044;-64
2022/06/13 10:00:02;;;;;;;26.42;17.55;;;31.40;96.60;;;;;;5054474;28;20023;-64
2022/06/13 10:02:44;;;;;;;29.83;20.25;;;31.20;98.10;;;;;;5051269;28;20043;-63
2022/06/13 10:05:24;;;;;;;35.80;21.67;;;31.00;98.00;;;;;;5053304;28;20031;-64
2022/06/13 10:08:02;;;;;;;38.22;26.75;;;30.80;98.30;;;;;;5051252;28;20036;-64
2022/06/13 10:10:50;;;;;;;42.38;29.75;;;30.70;98.60;;;;;;5050300;28;20040;-64
2022/06/13 10:13:32;;;;;;;45.03;27.23;;;30.50;98.50;;;;;;5052380;28;20028;-64
2022/06/13 10:16:26;;;;;;;49.53;36.80;;;30.40;98.70;;;;;;5051545;28;20467;-64
2022/06/13 10:18:59;;;;;;;47.97;31.02;;;30.20;99.30;;;;;;5050108;28;20357;-65
2022/06/13 10:21:46;;;;;;;40.03;29.02;;;30.20;99.50;;;;;;5052692;28;20541;-64
2022/06/13 10:24:33;;;;;;;48.22;34.30;;;30.10;99.60;;;;;;5051324;28;20048;-63
2022/06/13 10:27:15;;;;;;;29.17;21.17;;;30.00;99.00;;;;;;5049652;28;20344;-64
2022/06/13 10:29:57;;;;;;;37.93;29.93;;;30.00;99.00;;;;;;5046539;28;20060;-64
2022/06/13 10:32:28;;;;;;;48.90;36.92;;;29.90;99.40;;;;;;5048484;28;20059;-64
2022/06/13 10:35:04;;;;;;;33.90;24.00;;;29.90;99.70;;;;;;5049387;28;20494;-64
2022/06/13 10:37:51;;;;;;;36.88;26.08;;;29.80;99.90;;;;;;5052065;28;20571;-64
2022/06/13 10:40:18;;;;;;;25.20;19.35;;;29.90;99.90;;;;;;5050119;28;20021;-63
2022/06/13 10:42:46;;;;;;;28.35;22.58;;;29.70;99.90;;;;;;5052632;28;20403;-64
2022/06/13 10:45:15;;;;;;;38.53;27.77;;;29.60;99.90;;;;;;5050788;28;20041;-65
2022/06/13 10:47:46;;;;;;;39.63;27.33;;;29.50;99.90;;;;;;5053175;28;20036;-65
2022/06/13 10:50:37;;;;;;;44.43;32.27;;;29.50;99.90;;;;;;5053067;28;20029;-65
2022/06/13 10:53:11;;;;;;;40.72;29.17;;;29.40;99.90;;;;;;5051333;28;20266;-64
2022/06/13 10:55:42;;;;;;;38.25;28.73;;;29.40;99.90;;;;;;5051135;28;20422;-66
2022/06/13 10:58:20;;;;;;;39.58;31.45;;;29.40;99.90;;;;;;5052458;28;20021;-66
2022/06/13 11:01:19;;;;;;;28.98;21.55;;;29.40;99.90;;;;;;5048574;28;20039;-65
2022/06/13 11:04:17;;;;;;;25.92;19.80;;;29.20;99.90;;;;;;5052042;28;20025;-65
2022/06/13 11:06:48;;;;;;;27.60;20.75;;;29.20;99.90;;;;;;5052058;28;20033;-64
2022/06/13 11:09:26;;;;;;;29.40;22.95;;;29.00;99.90;;;;;;5051938;28;20132;-63
2022/06/13 11:12:16;;;;;;;28.15;20.63;;;28.80;99.90;;;;;;5051592;28;20025;-64
2022/06/13 11:23:15;;;;;;;26.90;18.73;;;28.50;99.90;;;;;;5043043;28;20064;-65
2022/06/13 11:25:42;;;;;;;23.02;18.58;;;28.50;99.90;;;;;;5044826;28;20091;-65
2022/06/13 11:28:18;;;;;;;29.48;19.27;;;28.40;99.90;;;;;;5042852;28;20092;-65
2022/06/13 11:30:50;;;;;;;28.08;19.35;;;28.40;99.90;;;;;;5043411;28;20025;-67
2022/06/13 11:33:23;;;;;;;27.15;19.08;;;28.50;99.90;;;;;;5044199;28;20034;-65
2022/06/13 11:36:00;;;;;;;25.75;19.98;;;28.50;99.90;;;;;;5048394;28;20103;-65
2022/06/13 11:38:37;;;;;;;27.45;19.45;;;28.50;99.90;;;;;;5047975;28;20013;-65
2022/06/13 11:41:24;;;;;;;25.67;18.92;;;28.40;99.90;;;;;;5047683;28;20033;-66
2022/06/13 11:44:01;;;;;;;25.02;18.10;;;28.30;99.90;;;;;;5046997;28;20026;-66
2022/06/13 11:46:28;;;;;;;26.45;17.17;;;28.30;99.90;;;;;;5040800;28;20029;-65
2022/06/13 11:49:04;;;;;;;20.65;16.85;;;28.30;99.90;;;;;;5044802;28;20152;-64
2022/06/13 11:51:40;;;;;;;32.03;26.77;;;28.30;99.90;;;;;;5046396;28;20060;-64
2022/06/13 11:54:23;;;;;;;55.38;41.55;;;28.20;99.90;;;;;;5042034;28;20104;-65
2022/06/13 11:57:07;;;;;;;19.92;16.25;;;28.20;99.90;;;;;;5046732;28;20033;-66
2022/06/13 11:59:34;;;;;;;24.25;19.52;;;28.20;99.90;;;;;;5045805;28;20052;-67
2022/06/13 12:02:00;;;;;;;32.72;22.48;;;28.30;99.90;;;;;;5043827;28;20710;-65
2022/06/13 12:04:30;;;;;;;35.17;27.25;;;28.30;99.90;;;;;;5056238;28;20041;-66
2022/06/13 12:06:59;;;;;;;31.38;22.13;;;28.30;99.90;;;;;;5045886;28;20480;-67
2022/06/13 12:09:32;;;;;;;30.17;19.95;;;28.30;99.90;;;;;;5056990;28;20108;-65
2022/06/13 12:12:02;;;;;;;66.40;51.55;;;28.20;99.90;;;;;;5056834;28;20016;-67
2022/06/13 12:14:32;;;;;;;24.55;15.05;;;28.20;99.90;;;;;;5056584;28;20054;-65
2022/06/13 12:17:06;;;;;;;23.45;14.48;;;28.10;99.90;;;;;;5041958;28;20079;-68
2022/06/13 12:19:43;;;;;;;28.27;19.35;;;28.10;99.90;;;;;;5054811;28;20033;-66
2022/06/13 12:22:27;;;;;;;26.77;17.67;;;27.90;99.90;;;;;;5061129;28;20029;-65
2022/06/13 12:25:10;;;;;;;27.95;19.98;;;27.70;99.90;;;;;;5045347;28;20029;-66
2022/06/13 12:27:57;;;;;;;44.35;31.17;;;27.70;99.90;;;;;;5050791;28;20036;-67
2022/06/13 12:30:50;;;;;;;33.65;24.05;;;27.70;99.90;;;;;;5021817;28;20032;-66
2022/06/13 12:33:36;;;;;;;21.27;16.77;;;27.70;99.90;;;;;;5048044;28;20425;-66
2022/06/13 12:36:08;;;;;;;27.02;18.45;;;27.80;99.90;;;;;;5048331;28;20058;-62
2022/06/13 12:38:55;;;;;;;18.88;13.95;;;27.80;99.90;;;;;;5050010;28;20032;-62
2022/06/13 12:41:28;;;;;;;22.63;14.07;;;27.90;99.90;;;;;;5054751;28;20463;-66
2022/06/13 12:44:15;;;;;;;21.27;14.05;;;27.70;99.90;;;;;;5051686;28;20029;-64
2022/06/13 12:46:51;;;;;;;18.42;14.73;;;27.60;99.90;;;;;;5052506;28;20029;-65
2022/06/13 12:49:39;;;;;;;19.10;14.30;;;27.50;99.90;;;;;;5054195;28;20020;-65
2022/06/13 12:52:16;;;;;;;17.25;13.48;;;27.50;99.90;;;;;;5050581;28;20103;-66
2022/06/13 12:54:58;;;;;;;24.13;13.57;;;27.40;99.90;;;;;;5055115;28;20103;-65
2022/06/13 12:57:47;;;;;;;24.40;15.27;;;27.40;99.90;;;;;;5052857;28;20127;-65
2022/06/13 13:00:18;;;;;;;17.73;13.98;;;27.40;99.90;;;;;;5054941;28;20027;-70
2022/06/13 13:03:17;;;;;;;18.83;13.38;;;27.30;99.90;;;;;;5053764;28;20052;-66
2022/06/13 13:05:53;;;;;;;22.90;15.20;;;27.40;99.90;;;;;;5053839;28;20021;-68
2022/06/13 13:08:23;;;;;;;27.33;16.77;;;27.50;99.90;;;;;;5054307;28;20406;-66
2022/06/13 13:10:52;;;;;;;36.17;27.80;;;27.50;99.90;;;;;;5055849;28;20349;-67
2022/06/13 13:13:43;;;;;;;32.80;23.25;;;27.50;99.90;;;;;;5053509;28;20032;-66
2022/06/13 13:16:14;;;;;;;55.90;38.83;;;27.50;99.90;;;;;;5053597;28;20021;-67
2022/06/13 13:19:10;;;;;;;25.40;18.63;;;27.50;99.90;;;;;;5051660;28;20041;-66
2022/06/13 13:21:40;;;;;;;31.50;21.15;;;27.50;99.90;;;;;;5044903;28;20176;-67
2022/06/13 13:24:07;;;;;;;42.85;30.75;;;27.60;99.90;;;;;;5045284;28;20025;-66
2022/06/13 13:26:49;;;;;;;34.20;25.48;;;27.70;99.90;;;;;;5050477;28;20066;-65
2022/06/13 13:29:27;;;;;;;29.38;23.92;;;27.70;99.90;;;;;;5053433;28;20021;-65
2022/06/13 13:32:18;;;;;;;27.23;18.42;;;27.70;99.90;;;;;;5054520;28;20029;-66
2022/06/13 13:35:02;;;;;;;27.83;18.35;;;27.80;99.90;;;;;;5050700;28;20406;-66